createdAt,value
2022-10-10T00:00:47.821Z,101567.06
2022-10-10T00:03:14.306Z,101560.91
2022-10-10T00:05:41.084Z,101559.56
2022-10-10T00:08:07.712Z,101552.56
2022-10-10T00:10:34.706Z,101549.50
2022-10-10T00:13:01.504Z,101543.53
2022-10-10T00:15:28.018Z,101543.88
2022-10-10T00:17:54.534Z,101534.22
2022-10-10T00:20:21.386Z,101543.06
2022-10-10T00:22:48.378Z,101528.91
2022-10-10T00:25:15.168Z,101531.31
2022-10-10T00:27:41.875Z,101524.47
2022-10-10T00:30:09.343Z,101528.19
2022-10-10T00:32:36.576Z,101524.28
2022-10-10T00:35:04.301Z,101522.13
2022-10-10T00:37:30.889Z,101514.88
2022-10-10T00:39:57.344Z,101507.38
2022-10-10T00:42:23.806Z,101519.41
2022-10-10T00:45:19.970Z,101507.44
2022-10-10T00:47:47.565Z,101508.81
2022-10-10T00:50:14.167Z,101504.50
2022-10-10T00:52:40.625Z,101501.22
2022-10-10T00:55:07.449Z,101505.25
2022-10-10T00:57:33.940Z,101483.53
2022-10-10T01:00:00.976Z,101484.03
2022-10-10T01:02:27.461Z,101479.22
2022-10-10T01:04:53.920Z,101473.97
2022-10-10T01:07:26.478Z,101473.81
2022-10-10T01:09:55.483Z,101476.97
2022-10-10T01:12:55.841Z,101484.09
2022-10-10T01:15:31.285Z,101477.78
2022-10-10T01:18:25.828Z,101464.28
2022-10-10T01:21:04.634Z,101464.28
2022-10-10T01:23:49.186Z,101467.09
2022-10-10T01:26:40.459Z,101466.94
2022-10-10T01:29:18.426Z,101452.78
2022-10-10T01:31:46.985Z,101455.84
2022-10-10T01:34:23.941Z,101442.75
2022-10-10T01:37:04.948Z,101441.28
2022-10-10T01:39:37.341Z,101440.91
2022-10-10T01:42:08.124Z,101436.75
2022-10-10T01:44:34.594Z,101427.75
2022-10-10T01:47:01.059Z,101435.38
2022-10-10T01:49:30.584Z,101432.03
2022-10-10T01:52:29.401Z,101430.09
2022-10-10T01:55:17.596Z,101424.19
2022-10-10T01:58:02.715Z,101425.97
2022-10-10T02:00:32.231Z,101411.97
2022-10-10T02:03:05.846Z,101409.44
2022-10-10T02:05:40.235Z,101409.84
2022-10-10T02:08:10.330Z,101409.28
2022-10-10T02:10:44.887Z,101408.22
2022-10-10T02:13:12.609Z,101405.09
2022-10-10T02:15:43.712Z,101410.34
2022-10-10T02:18:12.011Z,101399.78
2022-10-10T02:20:38.557Z,101392.13
2022-10-10T02:23:05.900Z,101388.81
2022-10-10T02:25:36.184Z,101391.25
2022-10-10T02:28:07.237Z,101379.97
2022-10-10T02:30:38.977Z,101386.09
2022-10-10T02:33:06.922Z,101376.69
2022-10-10T02:35:40.822Z,101373.94
2022-10-10T02:38:10.044Z,101369.22
2022-10-10T02:40:37.415Z,101370.38
2022-10-10T02:43:05.550Z,101348.13
2022-10-10T02:45:33.272Z,101361.41
2022-10-10T02:48:03.282Z,101353.56
2022-10-10T02:50:30.666Z,101349.97
2022-10-10T02:52:57.746Z,101348.94
2022-10-10T02:55:24.316Z,101338.19
2022-10-10T02:57:51.670Z,101337.59
2022-10-10T03:00:18.442Z,101332.63
2022-10-10T03:02:46.199Z,101339.72
2022-10-10T03:05:13.660Z,101346.47
2022-10-10T03:07:40.168Z,101333.88
2022-10-10T03:10:07.521Z,101330.00
2022-10-10T03:12:37.182Z,101333.94
2022-10-10T03:15:09.179Z,101328.25
2022-10-10T03:17:37.817Z,101322.75
2022-10-10T03:20:04.710Z,101329.00
2022-10-10T03:22:31.141Z,101324.03
2022-10-10T03:24:57.663Z,101316.53
2022-10-10T03:27:24.129Z,101313.81
2022-10-10T03:29:50.588Z,101309.63
2022-10-10T03:32:17.087Z,101312.53
2022-10-10T03:34:43.602Z,101312.88
2022-10-10T03:37:10.200Z,101306.84
2022-10-10T03:39:36.669Z,101294.22
2022-10-10T03:42:03.355Z,101305.16
2022-10-10T03:44:29.809Z,101310.28
2022-10-10T03:46:56.300Z,101301.41
2022-10-10T03:49:22.787Z,101306.63
2022-10-10T03:51:49.307Z,101307.25
2022-10-10T03:54:15.798Z,101302.53
2022-10-10T03:56:42.309Z,101307.00
2022-10-10T03:59:08.790Z,101298.38
2022-10-10T04:01:35.270Z,101304.63
2022-10-10T04:04:01.789Z,101288.13
2022-10-10T04:06:28.512Z,101290.00
2022-10-10T04:08:55.019Z,101291.78
2022-10-10T04:11:21.532Z,101285.28
2022-10-10T04:13:47.972Z,101281.00
2022-10-10T04:16:14.436Z,101273.41
2022-10-10T04:18:40.930Z,101280.13
2022-10-10T04:21:07.393Z,101274.69
2022-10-10T04:23:33.856Z,101280.78
2022-10-10T04:26:00.384Z,101278.81
2022-10-10T04:28:26.927Z,101276.69
2022-10-10T04:30:56.242Z,101264.88
2022-10-10T04:33:23.022Z,101271.72
2022-10-10T04:35:50.386Z,101257.63
2022-10-10T04:38:17.821Z,101266.31
2022-10-10T04:40:44.346Z,101265.47
2022-10-10T04:43:10.809Z,101260.19
2022-10-10T04:45:37.853Z,101264.31
2022-10-10T04:48:04.535Z,101260.91
2022-10-10T04:50:31.107Z,101268.47
2022-10-10T04:52:57.597Z,101260.59
2022-10-10T04:55:24.088Z,101262.09
2022-10-10T04:57:50.552Z,101253.47
2022-10-10T05:00:17.211Z,101250.44
2022-10-10T05:02:43.693Z,101252.97
2022-10-10T05:05:10.204Z,101253.97
2022-10-10T05:07:37.149Z,101240.81
2022-10-10T05:10:04.274Z,101245.09
2022-10-10T05:12:30.746Z,101238.03
2022-10-10T05:14:57.182Z,101234.41
2022-10-10T05:17:23.912Z,101238.59
2022-10-10T05:19:51.592Z,101240.81
2022-10-10T05:22:18.049Z,101233.91
2022-10-10T05:24:44.633Z,101236.47
2022-10-10T05:27:11.164Z,101232.47
2022-10-10T05:29:37.861Z,101229.91
2022-10-10T05:32:09.135Z,101222.06
2022-10-10T05:34:36.765Z,101223.38
2022-10-10T05:37:03.240Z,101215.56
2022-10-10T05:39:29.757Z,101208.22
2022-10-10T05:41:56.222Z,101207.78
2022-10-10T05:44:22.709Z,101212.63
2022-10-10T05:46:49.133Z,101203.06
2022-10-10T05:49:15.697Z,101212.88
2022-10-10T05:51:42.169Z,101203.47
2022-10-10T05:54:08.881Z,101204.84
2022-10-10T05:56:35.520Z,101209.38
2022-10-10T05:59:02.378Z,101206.00
2022-10-10T06:01:28.810Z,101200.47
2022-10-10T06:03:56.135Z,101197.94
2022-10-10T06:06:24.013Z,101203.22
2022-10-10T06:08:50.633Z,101188.78
2022-10-10T06:11:19.207Z,101197.19
2022-10-10T06:13:47.364Z,101193.66
2022-10-10T06:16:13.818Z,101187.69
2022-10-10T06:18:40.248Z,101182.03
2022-10-10T06:21:08.189Z,101184.72
2022-10-10T06:23:35.044Z,101179.38
2022-10-10T06:26:01.542Z,101182.34
2022-10-10T06:28:28.047Z,101179.78
2022-10-10T06:30:54.591Z,101187.22
2022-10-10T06:33:21.121Z,101172.75
2022-10-10T06:35:48.990Z,101184.34
2022-10-10T06:38:16.766Z,101181.56
2022-10-10T06:40:43.557Z,101182.66
2022-10-10T06:43:14.422Z,101180.13
2022-10-10T06:45:43.784Z,101181.22
2022-10-10T06:48:11.111Z,101170.19
2022-10-10T06:50:37.657Z,101172.72
2022-10-10T06:53:04.689Z,101167.66
2022-10-10T06:55:31.588Z,101173.25
2022-10-10T06:57:58.181Z,101167.78
2022-10-10T07:00:25.606Z,101166.66
2022-10-10T07:02:52.690Z,101162.75
2022-10-10T07:05:19.597Z,101166.03
2022-10-10T07:07:46.067Z,101157.47
2022-10-10T07:10:14.615Z,101148.88
2022-10-10T07:12:44.812Z,101148.50
2022-10-10T07:15:12.431Z,101155.09
2022-10-10T07:17:38.986Z,101145.03
2022-10-10T07:20:06.325Z,101147.50
2022-10-10T07:22:33.071Z,101155.94
2022-10-10T07:24:59.577Z,101156.03
2022-10-10T07:27:26.021Z,101149.59
2022-10-10T07:29:52.531Z,101151.75
2022-10-10T07:32:18.969Z,101156.59
2022-10-10T07:34:45.439Z,101153.00
2022-10-10T07:37:11.912Z,101157.59
2022-10-10T07:39:38.389Z,101165.28
2022-10-10T07:42:04.865Z,101160.59
2022-10-10T07:44:34.392Z,101163.28
2022-10-10T07:47:01.237Z,101157.63
2022-10-10T07:49:27.764Z,101153.53
2022-10-10T07:51:58.920Z,101153.44
2022-10-10T07:54:28.320Z,101145.75
2022-10-10T07:56:54.737Z,101141.44
2022-10-10T07:59:21.406Z,101137.50
2022-10-10T08:01:47.967Z,101139.19
2022-10-10T08:04:14.519Z,101133.56
2022-10-10T08:06:41.027Z,101136.13
2022-10-10T08:09:07.482Z,101137.75
2022-10-10T08:11:34.010Z,101141.78
2022-10-10T08:14:00.474Z,101137.81
2022-10-10T08:16:27.735Z,101138.63
2022-10-10T08:18:54.202Z,101133.81
2022-10-10T08:21:20.705Z,101130.28
2022-10-10T08:23:47.371Z,101124.34
2022-10-10T08:26:15.838Z,101119.09
2022-10-10T08:28:42.958Z,101123.28
2022-10-10T08:31:12.505Z,101127.13
2022-10-10T08:33:41.512Z,101113.47
2022-10-10T08:36:10.081Z,101115.00
2022-10-10T08:38:36.945Z,101117.13
2022-10-10T08:41:15.142Z,101104.00
2022-10-10T08:43:46.220Z,101100.69
2022-10-10T08:46:19.790Z,101096.16
2022-10-10T08:48:46.842Z,101096.84
2022-10-10T08:51:20.594Z,101093.53
2022-10-10T08:53:52.214Z,101084.97
2022-10-10T08:56:32.676Z,101088.31
2022-10-10T08:59:05.256Z,101084.91
2022-10-10T09:01:35.819Z,101081.53
2022-10-10T09:04:22.261Z,101077.22
2022-10-10T09:07:18.491Z,101079.88
2022-10-10T09:10:09.656Z,101076.41
2022-10-10T09:12:49.268Z,101068.59
2022-10-10T09:15:26.227Z,101065.97
2022-10-10T09:18:26.617Z,101079.97
2022-10-10T09:20:59.621Z,101069.47
2022-10-10T09:23:35.944Z,101058.97
2022-10-10T09:26:08.844Z,101065.09
2022-10-10T09:28:42.455Z,101064.19
2022-10-10T09:31:24.689Z,101063.22
2022-10-10T09:33:59.795Z,101071.19
2022-10-10T09:36:31.920Z,101060.53
2022-10-10T09:39:16.253Z,101061.41
2022-10-10T09:41:47.353Z,101062.94
2022-10-10T09:44:15.346Z,101060.41
2022-10-10T09:46:42.017Z,101054.00
2022-10-10T09:49:10.613Z,101052.94
2022-10-10T09:51:37.041Z,101053.00
2022-10-10T09:54:05.339Z,101047.81
2022-10-10T09:56:37.837Z,101045.25
2022-10-10T09:59:04.364Z,101052.22
2022-10-10T10:01:32.959Z,101048.69
2022-10-10T10:04:27.607Z,101040.63
2022-10-10T10:07:08.865Z,101052.22
2022-10-10T10:09:35.346Z,101044.25
2022-10-10T10:12:02.185Z,101050.38
2022-10-10T10:14:31.244Z,101037.22
2022-10-10T10:17:10.164Z,101034.28
2022-10-10T10:19:40.473Z,101038.28
2022-10-10T10:22:26.935Z,101035.94
2022-10-10T10:24:54.083Z,101030.00
2022-10-10T10:27:22.876Z,101027.94
2022-10-10T10:29:54.652Z,101030.16
2022-10-10T10:32:33.453Z,101024.56
2022-10-10T10:35:14.338Z,101026.13
2022-10-10T10:37:47.746Z,101016.84
2022-10-10T10:40:29.280Z,101012.03
2022-10-10T10:43:10.918Z,101016.16
2022-10-10T10:46:08.885Z,101017.34
2022-10-10T10:49:04.429Z,101007.41
2022-10-10T10:52:00.684Z,101004.78
2022-10-10T10:54:45.541Z,101002.00
2022-10-10T10:58:04.703Z,101005.03
2022-10-10T11:01:23.156Z,101011.47
2022-10-10T11:05:16.346Z,101013.28
2022-10-10T11:06:32.351Z,101012.41
2022-10-10T11:09:54.333Z,101008.69
2022-10-10T11:12:26.922Z,101007.88
2022-10-10T11:15:00.817Z,100998.47
2022-10-10T11:17:36.261Z,100996.09
2022-10-10T11:20:06.841Z,101000.03
2022-10-10T11:22:46.651Z,100985.06
2022-10-10T11:25:23.841Z,100992.72
2022-10-10T11:27:55.458Z,100992.94
2022-10-10T11:30:23.800Z,100988.81
2022-10-10T11:32:59.147Z,100997.09
2022-10-10T11:35:48.952Z,100992.38
2022-10-10T11:38:22.322Z,100987.47
2022-10-10T11:41:12.200Z,100991.34
2022-10-10T11:43:54.776Z,100985.56
2022-10-10T11:46:38.029Z,100978.91
2022-10-10T11:49:16.775Z,100982.69
2022-10-10T11:52:35.414Z,100983.09
2022-10-10T11:55:09.628Z,100984.38
2022-10-10T11:57:40.818Z,100983.31
2022-10-10T12:00:13.064Z,100984.50
2022-10-10T12:02:42.969Z,100984.00
2022-10-10T12:05:30.070Z,100971.97
2022-10-10T12:07:56.458Z,100981.50
2022-10-10T12:10:31.954Z,100979.06
2022-10-10T12:13:06.168Z,100975.38
2022-10-10T12:15:39.949Z,100975.25
2022-10-10T12:18:23.479Z,100971.97
2022-10-10T12:20:49.928Z,100971.91
2022-10-10T12:23:30.228Z,100975.75
2022-10-10T12:25:56.762Z,100971.69
2022-10-10T12:28:30.901Z,100971.91
2022-10-10T12:30:58.673Z,100960.63
2022-10-10T12:33:28.392Z,100956.19
2022-10-10T12:35:54.971Z,100962.63
2022-10-10T12:38:23.905Z,100951.91
2022-10-10T12:41:09.911Z,100953.28
2022-10-10T12:43:38.153Z,100951.28
2022-10-10T12:46:30.961Z,100950.50
2022-10-10T12:49:16.267Z,100950.44
2022-10-10T12:51:43.319Z,100943.97
2022-10-10T12:54:21.845Z,100947.25
2022-10-10T12:56:48.347Z,100944.28
2022-10-10T12:59:24.382Z,100948.28
2022-10-10T13:01:55.402Z,100942.66
2022-10-10T13:04:22.339Z,100950.56
2022-10-10T13:06:49.731Z,100945.72
2022-10-10T13:09:31.077Z,100949.50
2022-10-10T13:12:02.799Z,100952.41
2022-10-10T13:14:43.974Z,100955.22
2022-10-10T13:17:37.243Z,100946.25
2022-10-10T13:20:05.399Z,100947.28
2022-10-10T13:22:33.631Z,100941.16
2022-10-10T13:25:00.738Z,100944.88
2022-10-10T13:27:32.675Z,100944.75
2022-10-10T13:29:59.764Z,100941.44
2022-10-10T13:32:29.636Z,100948.22
2022-10-10T13:35:05.111Z,100956.44
2022-10-10T13:37:31.950Z,100952.78
2022-10-10T13:39:58.578Z,100949.09
2022-10-10T13:42:29.312Z,100945.31
2022-10-10T13:44:56.582Z,100951.69
2022-10-10T13:47:44.963Z,100951.03
2022-10-10T13:50:43.852Z,100949.66
2022-10-10T13:53:29.622Z,100955.09
2022-10-10T13:55:59.186Z,100951.44
2022-10-10T13:58:31.417Z,100951.00
2022-10-10T14:01:00.447Z,100950.16
2022-10-10T14:03:28.024Z,100952.41
2022-10-10T14:05:54.584Z,100944.59
2022-10-10T14:08:25.776Z,100942.25
2022-10-10T14:11:02.363Z,100954.25
2022-10-10T14:13:30.710Z,100936.66
2022-10-10T14:16:22.991Z,100944.03
2022-10-10T14:18:49.532Z,100945.19
2022-10-10T14:21:16.011Z,100956.56
2022-10-10T14:23:42.471Z,100954.88
2022-10-10T14:26:15.240Z,100955.41
2022-10-10T14:28:42.191Z,100954.47
2022-10-10T14:31:08.781Z,100953.19
2022-10-10T14:33:35.524Z,100966.19
2022-10-10T14:36:02.178Z,100956.47
2022-10-10T14:38:28.637Z,100951.31
2022-10-10T14:40:55.816Z,100955.91
2022-10-10T14:43:23.623Z,100952.16
2022-10-10T14:45:52.238Z,100954.47
2022-10-10T14:48:18.914Z,100961.34
2022-10-10T14:50:47.660Z,100949.03
2022-10-10T14:53:14.873Z,100957.16
2022-10-10T14:55:45.875Z,100956.00
2022-10-10T14:58:22.368Z,100966.81
2022-10-10T15:00:51.054Z,100964.66
2022-10-10T15:03:17.642Z,100961.41
2022-10-10T15:05:44.245Z,100972.66
2022-10-10T15:08:14.153Z,100960.53
2022-10-10T15:10:41.367Z,100963.63
2022-10-10T15:13:08.164Z,100963.91
2022-10-10T15:15:34.713Z,100965.47
2022-10-10T15:18:01.264Z,100964.47
2022-10-10T15:20:31.170Z,100958.38
2022-10-10T15:23:03.580Z,100968.13
2022-10-10T15:25:33.678Z,100972.59
2022-10-10T15:28:01.465Z,100963.66
2022-10-10T15:30:28.252Z,100975.38
2022-10-10T15:32:54.690Z,100981.44
2022-10-10T15:35:23.029Z,100979.31
2022-10-10T15:37:49.512Z,100986.28
2022-10-10T15:40:19.707Z,100987.88
2022-10-10T15:42:47.186Z,100991.44
2022-10-10T15:45:22.630Z,100998.09
2022-10-10T15:47:58.633Z,100993.16
2022-10-10T15:50:27.069Z,101004.69
2022-10-10T15:52:53.639Z,101012.97
2022-10-10T15:55:20.111Z,101012.94
2022-10-10T15:57:46.550Z,101016.44
2022-10-10T16:00:13.783Z,101023.69
2022-10-10T16:02:40.240Z,101023.56
2022-10-10T16:05:08.553Z,101026.19
2022-10-10T16:07:42.224Z,101037.69
2022-10-10T16:10:13.352Z,101035.78
2022-10-10T16:12:39.784Z,101036.03
2022-10-10T16:15:07.433Z,101036.88
2022-10-10T16:17:34.154Z,101040.41
2022-10-10T16:20:00.613Z,101038.81
2022-10-10T16:22:27.082Z,101037.06
2022-10-10T16:25:17.335Z,101039.59
2022-10-10T16:27:40.203Z,101043.19
2022-10-10T16:30:07.561Z,101050.84
2022-10-10T16:32:37.986Z,101057.03
2022-10-10T16:35:07.804Z,101056.22
2022-10-10T16:37:34.374Z,101057.91
2022-10-10T16:40:00.910Z,101052.69
2022-10-10T16:42:28.325Z,101053.59
2022-10-10T16:44:54.820Z,101061.59
2022-10-10T16:47:21.311Z,101064.19
2022-10-10T16:49:47.758Z,101065.88
2022-10-10T16:52:14.198Z,101071.13
2022-10-10T16:54:40.656Z,101068.56
2022-10-10T16:57:07.078Z,101063.28
2022-10-10T16:59:34.844Z,101072.09
2022-10-10T17:02:01.433Z,101077.31
2022-10-10T17:04:27.903Z,101073.81
2022-10-10T17:06:54.351Z,101079.97
2022-10-10T17:09:22.669Z,101073.81
2022-10-10T17:11:51.493Z,101070.31
2022-10-10T17:14:18.262Z,101094.84
2022-10-10T17:17:11.780Z,101104.44
2022-10-10T17:19:32.026Z,101120.16
2022-10-10T17:21:59.420Z,101146.97
2022-10-10T17:24:25.908Z,101157.06
2022-10-10T17:26:53.141Z,101153.75
2022-10-10T17:29:20.621Z,101179.88
2022-10-10T17:31:47.165Z,101188.53
2022-10-10T17:34:13.880Z,101187.63
2022-10-10T17:36:40.931Z,101193.41
2022-10-10T17:39:08.309Z,101200.81
2022-10-10T17:41:34.832Z,101219.72
2022-10-10T17:44:01.352Z,101218.00
2022-10-10T17:46:34.887Z,101221.16
2022-10-10T17:49:04.767Z,101221.50
2022-10-10T17:51:31.299Z,101221.78
2022-10-10T17:54:01.734Z,101237.41
2022-10-10T17:56:28.849Z,101240.16
2022-10-10T17:58:56.692Z,101248.09
2022-10-10T18:01:23.346Z,101249.97
2022-10-10T18:03:50.192Z,101245.69
2022-10-10T18:06:21.606Z,101253.25
2022-10-10T18:08:49.265Z,101256.81
2022-10-10T18:11:17.920Z,101262.03
2022-10-10T18:13:44.365Z,101269.41
2022-10-10T18:16:13.975Z,101273.94
2022-10-10T18:18:43.794Z,101279.59
2022-10-10T18:21:13.867Z,101288.38
2022-10-10T18:23:42.209Z,101288.22
2022-10-10T18:26:15.295Z,101292.13
2022-10-10T18:28:45.306Z,101296.91
2022-10-10T18:31:14.880Z,101297.47
2022-10-10T18:33:42.471Z,101299.25
2022-10-10T18:36:12.849Z,101305.69
2022-10-10T18:38:39.412Z,101304.41
2022-10-10T18:41:12.158Z,101303.56
2022-10-10T18:43:39.718Z,101314.25
2022-10-10T18:46:08.756Z,101315.28
2022-10-10T18:48:36.145Z,101326.06
2022-10-10T18:51:04.923Z,101330.16
2022-10-10T18:53:31.851Z,101335.19
2022-10-10T18:56:00.498Z,101335.06
2022-10-10T18:58:27.751Z,101336.34
2022-10-10T19:01:02.532Z,101325.28
2022-10-10T19:03:29.489Z,101339.03
2022-10-10T19:05:56.125Z,101335.66
2022-10-10T19:08:22.633Z,101337.25
2022-10-10T19:10:50.361Z,101330.34
2022-10-10T19:13:17.654Z,101347.84
2022-10-10T19:15:44.549Z,101346.88
2022-10-10T19:18:10.995Z,101351.09
2022-10-10T19:20:39.198Z,101356.56
2022-10-10T19:23:06.332Z,101359.88
2022-10-10T19:25:37.810Z,101369.66
2022-10-10T19:28:05.757Z,101378.69
2022-10-10T19:30:33.342Z,101382.06
2022-10-10T19:32:59.843Z,101383.00
2022-10-10T19:35:26.269Z,101389.28
2022-10-10T19:37:52.948Z,101392.81
2022-10-10T19:40:19.384Z,101392.53
2022-10-10T19:42:45.841Z,101387.28
2022-10-10T19:45:12.268Z,101408.75
2022-10-10T19:47:38.730Z,101409.59
2022-10-10T19:50:05.739Z,101407.13
2022-10-10T19:52:32.403Z,101415.84
2022-10-10T19:54:58.857Z,101419.59
2022-10-10T19:57:25.483Z,101422.03
2022-10-10T19:59:52.226Z,101418.53
2022-10-10T20:02:18.693Z,101420.78
2022-10-10T20:04:45.142Z,101437.25
2022-10-10T20:07:11.686Z,101447.88
2022-10-10T20:09:38.158Z,101450.56
2022-10-10T20:12:04.750Z,101446.25
2022-10-10T20:14:31.885Z,101450.63
2022-10-10T20:16:58.394Z,101456.38
2022-10-10T20:19:24.878Z,101443.63
2022-10-10T20:21:51.353Z,101453.03
2022-10-10T20:24:18.092Z,101459.09
2022-10-10T20:26:44.589Z,101462.53
2022-10-10T20:29:11.047Z,101468.63
2022-10-10T20:31:37.747Z,101485.59
2022-10-10T20:34:05.589Z,101484.38
2022-10-10T20:36:33.733Z,101491.88
2022-10-10T20:39:04.820Z,101487.47
2022-10-10T20:41:32.638Z,101487.84
2022-10-10T20:44:02.065Z,101486.34
2022-10-10T20:46:31.714Z,101496.09
2022-10-10T20:48:59.922Z,101500.31
2022-10-10T20:51:27.555Z,101498.66
2022-10-10T20:53:57.340Z,101499.34
2022-10-10T20:56:24.224Z,101508.25
2022-10-10T20:58:50.710Z,101512.31
2022-10-10T21:01:22.813Z,101514.00
2022-10-10T21:03:49.513Z,101529.19
2022-10-10T21:06:25.021Z,101539.34
2022-10-10T21:08:52.805Z,101537.94
2022-10-10T21:11:23.514Z,101539.84
2022-10-10T21:13:56.527Z,101545.00
2022-10-10T21:16:25.303Z,101539.25
2022-10-10T21:18:57.490Z,101531.59
2022-10-10T21:21:25.940Z,101545.00
2022-10-10T21:23:56.030Z,101536.97
2022-10-10T21:26:24.409Z,101543.88
2022-10-10T21:28:51.355Z,101538.56
2022-10-10T21:31:20.237Z,101550.53
2022-10-10T21:33:48.192Z,101541.78
2022-10-10T21:36:15.955Z,101552.97
2022-10-10T21:38:42.864Z,101550.16
2022-10-10T21:41:12.090Z,101559.63
2022-10-10T21:43:40.259Z,101558.13
2022-10-10T21:46:10.442Z,101572.59
2022-10-10T21:48:36.964Z,101571.59
2022-10-10T21:51:03.664Z,101576.50
2022-10-10T21:53:30.177Z,101587.31
2022-10-10T21:55:56.776Z,101590.63
2022-10-10T21:58:23.704Z,101585.13
2022-10-10T22:00:50.941Z,101593.34
2022-10-10T22:03:17.564Z,101593.94
2022-10-10T22:05:44.810Z,101596.88
2022-10-10T22:08:11.414Z,101600.06
2022-10-10T22:10:40.743Z,101594.59
2022-10-10T22:13:07.279Z,101596.25
2022-10-10T22:15:33.994Z,101599.28
2022-10-10T22:18:00.449Z,101610.25
2022-10-10T22:20:26.909Z,101611.59
2022-10-10T22:22:53.371Z,101618.25
2022-10-10T22:25:19.972Z,101618.91
2022-10-10T22:27:46.534Z,101628.69
2022-10-10T22:30:13.539Z,101635.69
2022-10-10T22:32:40.234Z,101633.91
2022-10-10T22:35:07.017Z,101642.03
2022-10-10T22:37:33.509Z,101635.59
2022-10-10T22:39:59.970Z,101645.31
2022-10-10T22:42:26.456Z,101638.78
2022-10-10T22:44:52.946Z,101643.13
2022-10-10T22:47:19.546Z,101644.44
2022-10-10T22:49:46.005Z,101649.78
2022-10-10T22:52:12.454Z,101648.44
2022-10-10T22:54:38.905Z,101650.50
2022-10-10T22:57:05.364Z,101652.63
2022-10-10T22:59:31.842Z,101653.41
2022-10-10T23:01:58.354Z,101654.16
2022-10-10T23:04:24.838Z,101657.03
2022-10-10T23:06:51.319Z,101667.16
2022-10-10T23:09:17.974Z,101671.31
2022-10-10T23:11:44.452Z,101680.22
2022-10-10T23:14:10.918Z,101679.13
2022-10-10T23:16:40.526Z,101677.28
2022-10-10T23:19:07.552Z,101677.97
2022-10-10T23:21:34.081Z,101686.47
2022-10-10T23:24:00.525Z,101689.66
2022-10-10T23:26:26.995Z,101685.56
2022-10-10T23:28:53.492Z,101673.81
2022-10-10T23:31:20.053Z,101687.66
2022-10-10T23:33:46.487Z,101688.00
2022-10-10T23:36:14.253Z,101684.38
2022-10-10T23:38:41.275Z,101682.22
2022-10-10T23:41:09.158Z,101690.69
2022-10-10T23:43:35.765Z,101694.53
2022-10-10T23:46:02.613Z,101701.09
2022-10-10T23:48:29.446Z,101691.47
2022-10-10T23:50:56.140Z,101701.91
2022-10-10T23:53:22.576Z,101701.84
2022-10-10T23:55:49.088Z,101707.16
2022-10-10T23:58:15.594Z,101711.25
